Time;durP1;ratioP1;P1;durP2;ratioP2;P2;SDS_P1;SDS_P2;PMS_P1;PMS_P2;Temp;Humidity;BMP_temperature;BMP_pressure;BME280_temperature;BME280_humidity;BME280_pressure;Samples;Min_cycle;Max_cycle;Signal;HPM_P1;HPM_P2
2021/12/25 00:02:36;;;;;;;3.90;3.70;;;4.20;99.90;;;;;;5141488;27;21012;-59
2021/12/25 00:05:17;;;;;;;4.82;4.50;;;4.10;99.90;;;;;;5082979;27;20970;-58
2021/12/25 00:07:57;;;;;;;4.53;4.22;;;4.10;99.90;;;;;;5085236;28;21112;-58
2021/12/25 00:10:37;;;;;;;3.97;3.67;;;4.10;99.90;;;;;;5084545;28;21034;-58
2021/12/25 00:13:18;;;;;;;4.30;3.90;;;4.00;99.90;;;;;;5125385;27;20854;-58
2021/12/25 00:15:58;;;;;;;3.90;3.63;;;4.00;99.90;;;;;;5146264;27;20542;-58
2021/12/25 00:18:39;;;;;;;3.72;3.50;;;4.00;99.90;;;;;;5084757;27;20544;-58
2021/12/25 00:21:19;;;;;;;4.00;3.70;;;4.00;99.90;;;;;;5104830;27;20554;-58
2021/12/25 00:23:59;;;;;;;4.00;3.70;;;4.00;99.90;;;;;;5124819;27;20584;-58
2021/12/25 00:26:47;;;;;;;4.30;3.90;;;4.00;99.90;;;;;;5084113;27;20589;-58
2021/12/25 00:29:50;;;;;;;3.47;3.28;;;4.00;99.90;;;;;;5084720;28;21024;-58
2021/12/25 00:32:47;;;;;;;4.60;3.53;;;4.00;99.90;;;;;;5084551;28;20546;-58
2021/12/25 00:35:27;;;;;;;4.25;3.95;;;4.10;99.90;;;;;;5083993;27;20568;-58
2021/12/25 00:38:06;;;;;;;3.83;3.58;;;4.10;99.90;;;;;;5085420;27;20551;-57
2021/12/25 00:40:46;;;;;;;3.92;3.72;;;4.10;99.90;;;;;;5104985;27;20537;-58
2021/12/25 00:43:26;;;;;;;4.30;4.00;;;4.10;99.90;;;;;;5125559;27;20536;-58
2021/12/25 00:46:05;;;;;;;4.50;4.20;;;4.10;99.90;;;;;;5124597;27;20544;-58
2021/12/25 00:48:45;;;;;;;4.50;4.13;;;4.10;99.90;;;;;;5084947;28;20664;-58
2021/12/25 00:51:25;;;;;;;4.07;3.78;;;4.10;99.90;;;;;;5085125;28;21025;-58
2021/12/25 00:54:05;;;;;;;4.20;3.80;;;4.10;99.90;;;;;;5104362;27;20549;-58
2021/12/25 00:56:45;;;;;;;4.38;4.07;;;4.10;99.90;;;;;;5084495;28;20683;-58
2021/12/25 00:59:25;;;;;;;3.72;3.45;;;4.10;99.90;;;;;;5084754;28;20687;-58
2021/12/25 01:02:05;;;;;;;4.22;3.92;;;4.20;99.90;;;;;;5084657;28;20663;-58
2021/12/25 01:04:44;;;;;;;4.22;4.03;;;4.20;99.90;;;;;;5124551;27;21237;-58
2021/12/25 01:07:24;;;;;;;4.13;3.83;;;4.20;99.90;;;;;;5125481;27;20552;-58
2021/12/25 01:10:07;;;;;;;4.65;4.25;;;4.20;99.90;;;;;;5105397;27;21315;-58
2021/12/25 01:13:01;;;;;;;5.07;4.68;;;4.20;99.90;;;;;;5085161;27;21068;-58
2021/12/25 01:15:55;;;;;;;4.18;3.80;;;4.20;99.90;;;;;;5104452;27;20553;-58
2021/12/25 01:21:50;;;;;;;4.20;3.90;;;4.10;99.90;;;;;;5084898;27;20687;-58
2021/12/25 01:30:20;;;;;;;4.45;4.13;;;4.10;99.90;;;;;;5104859;27;20673;-57
2021/12/25 01:33:25;;;;;;;4.22;3.90;;;4.10;99.90;;;;;;5083916;28;20664;-58
2021/12/25 01:39:20;;;;;;;4.03;3.70;;;4.10;99.90;;;;;;5105280;27;20934;-58
2021/12/25 01:47:44;;;;;;;3.85;3.42;;;4.10;99.90;;;;;;5146098;27;20550;-58
2021/12/25 01:48:08;;;;;;;4.28;3.88;;;4.10;99.90;;;;;;5125635;27;20691;-59
2021/12/25 01:50:48;;;;;;;3.70;3.40;;;4.10;99.90;;;;;;5084219;28;21020;-58
2021/12/25 01:53:27;;;;;;;3.88;3.67;;;4.10;99.90;;;;;;5083904;27;20853;-59
2021/12/25 01:56:08;;;;;;;3.53;3.33;;;4.10;99.90;;;;;;5081489;27;20543;-58
2021/12/25 01:58:47;;;;;;;4.13;3.67;;;4.10;99.90;;;;;;5085086;28;20667;-58
2021/12/25 02:01:27;;;;;;;3.60;3.35;;;4.10;99.90;;;;;;5085178;28;20672;-58
2021/12/25 02:04:07;;;;;;;3.47;3.28;;;4.00;99.90;;;;;;5084297;27;20535;-58
2021/12/25 02:06:47;;;;;;;3.58;3.30;;;3.90;99.90;;;;;;5085015;28;20688;-58
2021/12/25 02:09:27;;;;;;;3.83;3.03;;;4.00;99.90;;;;;;5080761;28;20671;-58
2021/12/25 02:12:10;;;;;;;3.80;3.47;;;4.00;99.90;;;;;;5084739;28;20539;-58
2021/12/25 02:14:51;;;;;;;3.30;3.10;;;4.00;99.90;;;;;;5083882;28;20664;-63
2021/12/25 02:17:48;;;;;;;3.13;2.92;;;3.90;99.90;;;;;;5105342;27;20973;-58
2021/12/25 02:20:34;;;;;;;3.67;3.47;;;3.90;99.90;;;;;;5085362;27;20548;-58
2021/12/25 02:23:19;;;;;;;4.38;4.07;;;3.90;99.90;;;;;;5084611;28;20667;-59
2021/12/25 02:26:00;;;;;;;3.92;3.65;;;3.80;99.90;;;;;;5082819;27;20532;-58
2021/12/25 02:28:39;;;;;;;3.85;3.53;;;3.80;99.90;;;;;;5084701;28;20672;-58
2021/12/25 02:31:19;;;;;;;3.33;3.13;;;3.80;99.90;;;;;;5146129;27;20671;-58
2021/12/25 02:33:59;;;;;;;4.60;4.03;;;3.70;99.90;;;;;;5145799;27;20534;-58
2021/12/25 02:36:38;;;;;;;4.22;3.92;;;3.70;99.90;;;;;;5104737;27;20670;-59
2021/12/25 02:39:18;;;;;;;3.58;3.38;;;3.60;99.90;;;;;;5084595;28;20667;-58
2021/12/25 02:41:58;;;;;;;3.50;3.30;;;3.60;99.90;;;;;;5105179;27;20549;-59
2021/12/25 02:44:38;;;;;;;3.47;3.22;;;3.50;99.90;;;;;;5083553;27;20543;-58
2021/12/25 02:47:20;;;;;;;3.58;3.25;;;3.50;99.90;;;;;;5104879;27;21238;-59
2021/12/25 02:49:59;;;;;;;3.35;3.15;;;3.50;99.90;;;;;;5125942;27;20544;-58
2021/12/25 02:52:39;;;;;;;3.38;3.17;;;3.50;99.90;;;;;;5125695;27;20948;-58
2021/12/25 02:55:19;;;;;;;3.35;2.88;;;3.50;99.90;;;;;;5083053;28;21027;-59
2021/12/25 02:57:58;;;;;;;4.30;3.25;;;3.50;99.90;;;;;;5125341;27;20547;-58
2021/12/25 03:00:42;;;;;;;3.42;3.22;;;3.60;99.90;;;;;;5126023;27;20536;-58
2021/12/25 03:03:22;;;;;;;4.95;4.63;;;3.70;99.90;;;;;;5084464;27;20547;-59
2021/12/25 03:06:03;;;;;;;3.67;3.38;;;3.70;99.90;;;;;;5124950;27;20663;-59
2021/12/25 03:08:44;;;;;;;3.40;3.20;;;3.70;99.90;;;;;;5146398;27;20550;-59
2021/12/25 03:11:24;;;;;;;3.20;3.00;;;3.70;99.90;;;;;;5084865;28;20652;-59
2021/12/25 03:14:13;;;;;;;3.60;3.40;;;3.70;99.90;;;;;;5145670;27;20665;-58
2021/12/25 03:16:52;;;;;;;3.85;3.60;;;3.70;99.90;;;;;;5084769;27;20551;-59
2021/12/25 03:19:33;;;;;;;3.70;3.40;;;3.70;99.90;;;;;;5146168;27;20542;-58
2021/12/25 03:22:13;;;;;;;3.60;3.35;;;3.70;99.90;;;;;;5146470;27;20653;-58
2021/12/25 03:24:53;;;;;;;3.40;3.20;;;3.70;99.90;;;;;;5083284;27;20548;-58
2021/12/25 03:27:35;;;;;;;4.65;3.20;;;3.70;99.90;;;;;;5084642;28;21212;-59
2021/12/25 03:30:16;;;;;;;3.80;3.50;;;3.70;99.90;;;;;;5084863;28;20867;-58
2021/12/25 03:32:56;;;;;;;4.40;3.50;;;3.70;99.90;;;;;;5105519;27;20545;-59
2021/12/25 03:35:36;;;;;;;3.67;3.47;;;3.80;99.90;;;;;;5083682;28;20683;-58
2021/12/25 03:38:19;;;;;;;4.10;3.70;;;3.80;99.90;;;;;;5105368;27;20753;-58
2021/12/25 03:40:59;;;;;;;3.70;3.40;;;3.80;99.90;;;;;;5124746;27;20540;-58
2021/12/25 03:43:40;;;;;;;3.80;3.50;;;3.80;99.90;;;;;;5103717;27;20888;-58
2021/12/25 03:46:20;;;;;;;3.75;3.55;;;3.80;99.90;;;;;;5145422;27;20554;-59
2021/12/25 03:49:05;;;;;;;4.15;3.78;;;3.80;99.90;;;;;;5084114;28;20671;-59
2021/12/25 03:57:44;;;;;;;4.03;3.63;;;3.80;99.90;;;;;;5105167;27;21016;-58
2021/12/25 04:00:29;;;;;;;3.25;3.05;;;3.70;99.90;;;;;;5082636;27;21002;-58
2021/12/25 04:03:16;;;;;;;3.42;3.13;;;3.60;99.90;;;;;;5146301;27;20681;-58
2021/12/25 04:05:56;;;;;;;3.33;3.10;;;3.60;99.90;;;;;;5084135;28;20671;-58
2021/12/25 04:08:43;;;;;;;5.13;3.13;;;3.70;99.90;;;;;;5084425;27;20539;-59
2021/12/25 04:11:28;;;;;;;3.35;3.05;;;3.70;99.90;;;;;;5146265;27;20538;-59
2021/12/25 04:14:08;;;;;;;3.28;2.97;;;3.80;99.90;;;;;;5103743;27;20685;-58
2021/12/25 04:16:48;;;;;;;4.03;3.40;;;3.80;99.90;;;;;;5084425;27;20551;-58
2021/12/25 04:19:28;;;;;;;3.10;2.35;;;3.70;99.90;;;;;;5084584;27;20899;-59
2021/12/25 04:22:14;;;;;;;3.25;2.70;;;3.70;99.90;;;;;;5084386;27;20535;-59
2021/12/25 04:24:54;;;;;;;3.60;3.40;;;3.80;99.90;;;;;;5103690;27;20565;-59
2021/12/25 04:27:34;;;;;;;4.93;4.47;;;3.80;99.90;;;;;;5084500;27;20563;-58
2021/12/25 04:30:32;;;;;;;4.63;4.32;;;3.70;99.90;;;;;;5125489;27;20540;-59
2021/12/25 04:42:35;;;;;;;5.57;3.88;;;3.70;99.90;;;;;;5105633;27;20698;-58
2021/12/25 04:49:07;;;;;;;3.70;3.50;;;3.50;99.90;;;;;;5146001;27;21118;-59
2021/12/25 05:03:40;;;;;;;5.05;4.65;;;3.60;99.90;;;;;;5104676;27;20677;-58
2021/12/25 05:06:22;;;;;;;4.50;4.20;;;3.70;99.90;;;;;;5084142;27;20551;-59
2021/12/25 05:09:03;;;;;;;4.30;4.00;;;3.60;99.90;;;;;;5105201;27;20546;-58
2021/12/25 05:11:42;;;;;;;5.60;4.35;;;3.50;99.90;;;;;;5125905;27;20543;-58
2021/12/25 05:14:22;;;;;;;5.10;4.30;;;3.40;99.90;;;;;;5083544;28;20544;-58
2021/12/25 05:17:02;;;;;;;3.83;3.53;;;3.30;99.90;;;;;;5104892;27;20688;-57
2021/12/25 05:19:42;;;;;;;3.33;3.08;;;3.20;99.90;;;;;;5105249;27;20545;-58
2021/12/25 05:22:22;;;;;;;3.92;3.55;;;3.00;99.90;;;;;;5104877;27;20669;-58
2021/12/25 05:25:01;;;;;;;3.40;3.20;;;2.90;99.90;;;;;;5103696;27;20550;-58
2021/12/25 05:27:41;;;;;;;2.92;2.72;;;2.80;99.90;;;;;;5083999;27;21124;-59
2021/12/25 05:30:21;;;;;;;3.15;2.60;;;2.70;99.90;;;;;;5125251;27;20556;-59
2021/12/25 05:33:01;;;;;;;4.70;2.60;;;2.70;99.90;;;;;;5125093;27;20555;-58
2021/12/25 05:35:41;;;;;;;2.80;2.70;;;2.60;99.90;;;;;;5145196;27;20669;-59
2021/12/25 05:38:22;;;;;;;3.17;2.97;;;2.50;99.90;;;;;;5125014;27;21249;-58
2021/12/25 05:41:03;;;;;;;2.72;2.53;;;2.40;99.90;;;;;;5104647;27;20661;-59
2021/12/25 05:43:42;;;;;;;2.28;2.17;;;2.40;99.90;;;;;;5084606;27;20536;-58
2021/12/25 05:46:22;;;;;;;3.55;2.58;;;2.30;99.90;;;;;;5104482;27;20549;-59
2021/12/25 05:49:01;;;;;;;2.78;2.58;;;2.30;99.90;;;;;;5125327;27;20555;-58
2021/12/25 05:51:41;;;;;;;3.20;3.00;;;2.20;99.90;;;;;;5146197;27;20654;-58
2021/12/25 05:54:21;;;;;;;2.65;2.38;;;2.20;99.90;;;;;;5124151;27;20552;-58
2021/12/25 05:57:01;;;;;;;2.38;2.28;;;2.20;99.90;;;;;;5074465;28;20692;-58
2021/12/25 05:59:41;;;;;;;2.75;2.53;;;2.20;99.90;;;;;;5138441;27;21074;-58
2021/12/25 06:02:20;;;;;;;2.83;2.63;;;2.20;99.90;;;;;;5101326;27;20553;-59
2021/12/25 06:05:03;;;;;;;2.92;2.75;;;2.20;99.90;;;;;;5067274;28;20701;-59
2021/12/25 06:07:42;;;;;;;2.70;2.50;;;2.20;99.90;;;;;;5115502;27;21057;-59
2021/12/25 06:10:22;;;;;;;2.10;2.00;;;2.20;99.90;;;;;;5082386;28;20668;-58
2021/12/25 06:13:03;;;;;;;1.98;1.88;;;2.30;99.90;;;;;;5083750;27;20551;-58
2021/12/25 06:15:43;;;;;;;0.88;0.88;;;2.30;99.90;;;;;;5083603;28;20577;-59
2021/12/25 06:18:23;;;;;;;1.85;1.75;;;2.30;99.90;;;;;;5105084;27;20541;-58
2021/12/25 06:21:03;;;;;;;1.92;1.83;;;2.20;99.90;;;;;;5145912;27;20657;-59
2021/12/25 06:23:42;;;;;;;1.40;1.30;;;2.20;99.90;;;;;;5145536;27;20672;-58
2021/12/25 06:26:22;;;;;;;0.80;0.80;;;2.10;99.90;;;;;;5082938;28;20687;-58
2021/12/25 06:29:02;;;;;;;0.60;0.60;;;2.00;99.90;;;;;;5083274;27;20707;-58
2021/12/25 06:31:42;;;;;;;0.52;0.52;;;2.00;99.90;;;;;;5085129;27;20575;-59
2021/12/25 06:34:22;;;;;;;0.50;0.50;;;1.90;99.90;;;;;;5104475;27;20545;-58
2021/12/25 06:37:01;;;;;;;0.95;0.95;;;1.90;99.90;;;;;;5085020;27;21020;-59
2021/12/25 06:39:41;;;;;;;1.25;0.80;;;1.80;99.90;;;;;;5085282;28;20671;-58
2021/12/25 06:42:21;;;;;;;0.47;0.47;;;1.80;99.90;;;;;;5085420;28;20679;-58
2021/12/25 06:45:01;;;;;;;0.45;0.45;;;1.70;99.90;;;;;;5103963;27;20545;-58
2021/12/25 06:47:41;;;;;;;0.60;0.60;;;1.70;99.90;;;;;;5085129;27;21171;-58
2021/12/25 06:50:21;;;;;;;0.65;0.65;;;1.70;99.90;;;;;;5146329;27;20538;-58
2021/12/25 06:53:00;;;;;;;0.60;0.60;;;1.60;99.90;;;;;;5104985;27;20549;-59
2021/12/25 06:55:40;;;;;;;0.52;0.52;;;1.60;99.90;;;;;;5101719;27;20700;-59
2021/12/25 06:58:20;;;;;;;0.65;0.65;;;1.50;99.90;;;;;;5146146;27;20539;-59
2021/12/25 07:01:01;;;;;;;0.80;0.80;;;1.50;99.90;;;;;;5125459;27;20547;-58
2021/12/25 07:03:41;;;;;;;1.15;1.15;;;1.50;99.90;;;;;;5138188;27;20694;-58
2021/12/25 07:06:22;;;;;;;0.70;0.70;;;1.50;99.90;;;;;;5084237;28;20576;-58
2021/12/25 07:09:01;;;;;;;0.65;0.65;;;1.40;99.90;;;;;;5084624;28;20680;-59
2021/12/25 07:11:42;;;;;;;0.98;0.98;;;1.40;99.90;;;;;;5105185;27;20526;-59
2021/12/25 07:14:22;;;;;;;1.50;1.40;;;1.40;99.90;;;;;;5104021;27;20576;-59
2021/12/25 07:17:02;;;;;;;2.10;1.02;;;1.40;99.90;;;;;;5085776;28;20875;-56
2021/12/25 07:19:42;;;;;;;1.20;1.10;;;1.30;99.90;;;;;;5125803;27;21052;-58
2021/12/25 07:22:22;;;;;;;0.60;0.60;;;1.20;99.90;;;;;;5085044;28;20551;-58
2021/12/25 07:25:02;;;;;;;1.48;0.80;;;1.20;99.90;;;;;;5083398;28;20671;-59
2021/12/25 07:27:41;;;;;;;1.20;1.10;;;1.10;99.90;;;;;;5085100;28;21035;-58
2021/12/25 07:30:21;;;;;;;1.15;1.15;;;1.00;99.90;;;;;;5085000;28;20743;-58
2021/12/25 07:33:01;;;;;;;1.90;1.80;;;0.90;99.90;;;;;;5085289;28;20671;-58
2021/12/25 07:35:41;;;;;;;0.90;0.90;;;0.80;99.90;;;;;;5124623;27;20544;-59
2021/12/25 07:38:21;;;;;;;0.82;0.82;;;0.80;99.90;;;;;;5105376;27;20658;-58
2021/12/25 07:41:01;;;;;;;0.60;0.60;;;0.80;99.90;;;;;;5105168;27;21070;-58
2021/12/25 07:43:40;;;;;;;0.50;0.45;;;0.80;99.90;;;;;;5144698;27;21162;-58
2021/12/25 07:46:22;;;;;;;0.40;0.40;;;0.70;99.90;;;;;;5084034;27;20551;-58
2021/12/25 07:49:03;;;;;;;1.02;0.40;;;0.70;99.90;;;;;;5085113;28;20672;-59
2021/12/25 07:51:43;;;;;;;0.52;0.52;;;0.60;99.90;;;;;;5085163;28;20671;-57
2021/12/25 07:54:23;;;;;;;1.85;1.75;;;0.60;99.90;;;;;;5083580;28;20668;-59
2021/12/25 07:57:03;;;;;;;2.13;0.90;;;0.60;99.90;;;;;;5082873;27;20552;-59
2021/12/25 07:59:42;;;;;;;1.27;0.80;;;0.60;99.90;;;;;;5084527;28;20543;-58
2021/12/25 08:02:25;;;;;;;1.27;0.95;;;0.60;99.90;;;;;;5085304;27;20581;-58
2021/12/25 08:05:04;;;;;;;3.05;0.65;;;0.60;99.90;;;;;;5125074;27;20651;-58
2021/12/25 08:07:44;;;;;;;0.47;0.47;;;0.60;99.90;;;;;;5125856;27;21053;-59
2021/12/25 08:10:23;;;;;;;1.75;0.50;;;0.60;99.90;;;;;;5139852;27;20661;-59
2021/12/25 08:13:03;;;;;;;1.35;0.52;;;0.60;99.90;;;;;;5085039;28;20672;-58
2021/12/25 08:15:44;;;;;;;0.30;0.30;;;0.60;99.90;;;;;;5103323;27;20662;-58
2021/12/25 08:18:23;;;;;;;0.30;0.30;;;0.60;99.90;;;;;;5104921;27;20654;-58
2021/12/25 08:21:04;;;;;;;0.45;0.45;;;0.60;99.90;;;;;;5146078;27;21036;-58
2021/12/25 08:23:45;;;;;;;0.70;0.35;;;0.60;99.90;;;;;;5084261;27;20555;-59
2021/12/25 08:26:24;;;;;;;0.43;0.30;;;0.60;99.90;;;;;;5099691;27;20551;-59
2021/12/25 08:29:04;;;;;;;0.40;0.40;;;0.60;99.90;;;;;;5084430;27;20572;-59
2021/12/25 08:31:44;;;;;;;0.30;0.30;;;0.60;99.90;;;;;;5085000;28;20671;-58
2021/12/25 08:34:23;;;;;;;0.30;0.30;;;0.60;99.90;;;;;;5145834;27;20546;-58
2021/12/25 08:37:04;;;;;;;0.50;0.50;;;0.60;99.90;;;;;;5085134;27;20561;-59
2021/12/25 08:39:43;;;;;;;0.93;0.30;;;0.60;99.90;;;;;;5084945;27;20563;-58
2021/12/25 08:42:23;;;;;;;0.80;0.60;;;0.60;99.90;;;;;;5105497;27;20673;-58
2021/12/25 08:45:10;;;;;;;0.70;0.70;;;0.60;99.90;;;;;;5084134;28;20543;-58
2021/12/25 08:47:50;;;;;;;1.25;0.30;;;0.60;99.90;;;;;;5083509;27;20548;-58
2021/12/25 08:50:29;;;;;;;0.30;0.30;;;0.70;99.90;;;;;;5088236;27;20583;-58
2021/12/25 08:53:09;;;;;;;0.63;0.20;;;0.70;99.90;;;;;;5084133;28;20679;-58
2021/12/25 08:55:50;;;;;;;0.40;0.40;;;0.70;99.90;;;;;;5102698;27;20561;-58
2021/12/25 08:58:31;;;;;;;0.50;0.50;;;0.70;99.90;;;;;;5084890;27;20588;-59
2021/12/25 09:01:12;;;;;;;0.30;0.30;;;0.80;99.90;;;;;;5104934;27;20541;-58
2021/12/25 09:03:51;;;;;;;0.50;0.50;;;0.80;99.90;;;;;;5083799;27;20532;-58
2021/12/25 09:06:31;;;;;;;0.22;0.22;;;0.80;99.90;;;;;;5083672;27;20555;-59
2021/12/25 09:09:11;;;;;;;0.38;0.38;;;0.90;99.90;;;;;;5084673;27;20937;-58
2021/12/25 09:11:51;;;;;;;0.40;0.40;;;0.90;99.90;;;;;;5084240;28;20675;-58
2021/12/25 09:14:30;;;;;;;0.40;0.40;;;0.90;99.90;;;;;;5123439;27;20544;-59
2021/12/25 09:17:11;;;;;;;0.77;0.77;;;0.90;99.90;;;;;;5084982;27;20578;-59
2021/12/25 09:19:50;;;;;;;0.50;0.50;;;1.00;99.90;;;;;;5084496;27;20535;-58
2021/12/25 09:22:32;;;;;;;0.20;0.20;;;1.10;99.90;;;;;;5124541;27;20552;-59
2021/12/25 09:25:12;;;;;;;0.63;0.63;;;1.10;99.90;;;;;;5082948;27;20840;-58
2021/12/25 09:27:52;;;;;;;0.50;0.50;;;1.10;99.90;;;;;;5125582;22;20624;-58
2021/12/25 09:30:31;;;;;;;0.30;0.30;;;1.20;99.90;;;;;;5104513;27;20529;-59
2021/12/25 09:33:11;;;;;;;1.27;1.00;;;1.20;99.90;;;;;;5084472;27;21037;-59
2021/12/25 09:35:51;;;;;;;0.30;0.30;;;1.20;99.90;;;;;;5124547;27;20543;-59
2021/12/25 09:38:31;;;;;;;0.30;0.30;;;1.20;99.90;;;;;;5085327;27;20891;-59
2021/12/25 09:41:10;;;;;;;0.30;0.30;;;1.20;99.90;;;;;;5125536;27;20544;-59
2021/12/25 09:43:50;;;;;;;0.40;0.40;;;1.40;99.90;;;;;;5082913;28;20731;-58
2021/12/25 09:46:30;;;;;;;0.40;0.40;;;1.40;99.90;;;;;;5084017;27;21006;-58
2021/12/25 09:49:10;;;;;;;0.50;0.50;;;1.50;99.90;;;;;;5084775;28;20683;-58
2021/12/25 09:51:50;;;;;;;0.35;0.32;;;1.50;99.90;;;;;;5125357;27;20536;-57
2021/12/25 09:54:30;;;;;;;0.60;0.40;;;1.70;99.90;;;;;;5103252;27;20682;-59
2021/12/25 09:57:10;;;;;;;0.50;0.50;;;1.80;99.90;;;;;;5145004;27;20665;-58
2021/12/25 09:59:51;;;;;;;0.50;0.50;;;1.90;99.90;;;;;;5104965;27;21206;-59
2021/12/25 10:02:43;;;;;;;0.40;0.40;;;2.20;99.90;;;;;;5084631;27;20540;-59
2021/12/25 10:05:33;;;;;;;0.63;0.63;;;2.20;99.90;;;;;;5083323;27;20565;-58
2021/12/25 10:08:15;;;;;;;0.30;0.30;;;2.30;99.90;;;;;;5084007;28;20559;-58
2021/12/25 10:10:59;;;;;;;0.30;0.30;;;2.40;99.90;;;;;;5082852;28;20671;-58
2021/12/25 10:13:43;;;;;;;0.38;0.30;;;2.60;99.90;;;;;;5124726;27;20891;-58
2021/12/25 10:16:24;;;;;;;0.40;0.40;;;2.80;99.90;;;;;;5124352;27;20837;-58
2021/12/25 10:19:15;;;;;;;1.30;0.32;;;3.00;99.90;;;;;;5084430;28;20703;-60
2021/12/25 10:22:06;;;;;;;0.30;0.30;;;3.10;99.90;;;;;;5146570;27;20658;-59
2021/12/25 10:24:50;;;;;;;0.50;0.50;;;3.30;99.90;;;;;;5103993;27;20661;-58
2021/12/25 10:27:30;;;;;;;0.30;0.30;;;3.10;99.90;;;;;;5084823;27;20547;-58
2021/12/25 10:30:10;;;;;;;0.45;0.40;;;3.00;99.90;;;;;;5105429;27;20685;-58
2021/12/25 10:32:50;;;;;;;1.60;0.65;;;2.70;99.90;;;;;;5104076;27;21206;-58
2021/12/25 10:35:29;;;;;;;0.90;0.90;;;2.70;99.90;;;;;;5144887;27;20662;-58
2021/12/25 10:38:12;;;;;;;0.40;0.40;;;2.60;99.90;;;;;;5084973;27;21135;-59
2021/12/25 10:41:14;;;;;;;0.60;0.60;;;2.70;99.90;;;;;;5084637;28;20660;-58
2021/12/25 10:44:13;;;;;;;1.30;0.70;;;2.70;99.90;;;;;;5080694;27;20566;-59
2021/12/25 10:46:55;;;;;;;1.58;0.60;;;2.60;99.90;;;;;;5084868;28;21010;-58
2021/12/25 10:49:38;;;;;;;0.50;0.50;;;2.40;99.90;;;;;;5124996;27;20552;-59
2021/12/25 10:52:21;;;;;;;3.38;3.15;;;2.20;99.90;;;;;;5084308;27;21018;-59
2021/12/25 10:55:04;;;;;;;1.70;1.13;;;2.20;99.90;;;;;;5082871;27;21026;-58
2021/12/25 10:57:46;;;;;;;0.80;0.80;;;2.30;99.90;;;;;;5104542;27;20783;-58
2021/12/25 11:00:30;;;;;;;1.02;1.00;;;2.30;99.90;;;;;;5104290;27;20657;-59
2021/12/25 11:03:11;;;;;;;1.52;0.77;;;2.30;99.90;;;;;;5084014;28;20671;-58
2021/12/25 11:05:51;;;;;;;0.68;0.60;;;2.40;99.90;;;;;;5083416;28;20833;-58
2021/12/25 11:08:32;;;;;;;1.75;1.13;;;2.50;99.90;;;;;;5104394;27;20545;-58
2021/12/25 11:11:13;;;;;;;0.60;0.60;;;2.60;99.90;;;;;;5084711;27;20551;-58
2021/12/25 11:13:55;;;;;;;0.73;0.65;;;2.60;99.90;;;;;;5084193;27;20543;-59
2021/12/25 11:16:38;;;;;;;0.77;0.70;;;2.70;99.90;;;;;;5104546;27;20546;-58
2021/12/25 11:19:28;;;;;;;0.70;0.40;;;2.50;99.90;;;;;;5084646;28;20613;-58
2021/12/25 11:22:08;;;;;;;1.15;0.50;;;2.30;99.90;;;;;;5105550;27;20533;-59
2021/12/25 11:24:48;;;;;;;0.93;0.93;;;2.00;99.90;;;;;;5083812;27;20559;-59
2021/12/25 11:27:27;;;;;;;0.70;0.70;;;1.90;99.90;;;;;;5142804;27;20695;-58
2021/12/25 11:30:09;;;;;;;0.68;0.68;;;1.90;99.90;;;;;;5084906;28;20672;-58
2021/12/25 11:32:50;;;;;;;0.50;0.50;;;1.80;99.90;;;;;;5084776;27;21022;-58
2021/12/25 11:35:31;;;;;;;0.55;0.52;;;1.80;99.90;;;;;;5124329;27;20536;-58
2021/12/25 11:38:11;;;;;;;1.65;0.85;;;1.70;99.90;;;;;;5105308;27;20627;-58
2021/12/25 11:40:53;;;;;;;0.57;0.50;;;1.80;99.90;;;;;;5084949;28;21033;-58
2021/12/25 11:43:43;;;;;;;0.95;0.63;;;1.90;99.90;;;;;;5085207;28;20676;-59
2021/12/25 11:46:36;;;;;;;0.57;0.57;;;2.00;99.90;;;;;;5124946;27;20652;-58
2021/12/25 11:49:15;;;;;;;0.43;0.43;;;2.20;99.90;;;;;;5085559;27;20564;-59
2021/12/25 11:51:55;;;;;;;0.90;0.90;;;2.40;99.90;;;;;;5146693;27;20650;-58
2021/12/25 11:54:59;;;;;;;0.38;0.38;;;2.50;99.90;;;;;;5124569;27;21069;-58
2021/12/25 11:57:49;;;;;;;0.40;0.40;;;2.70;99.90;;;;;;5074365;28;21205;-58
2021/12/25 12:00:40;;;;;;;0.40;0.40;;;2.80;99.90;;;;;;5083389;27;21072;-58
2021/12/25 12:03:41;;;;;;;0.30;0.30;;;2.80;99.90;;;;;;5083716;27;20566;-57
2021/12/25 12:06:53;;;;;;;0.45;0.45;;;2.80;99.90;;;;;;5083912;27;20591;-58
2021/12/25 12:09:50;;;;;;;0.43;0.30;;;2.80;99.90;;;;;;5084448;27;20532;-59
2021/12/25 12:12:30;;;;;;;0.80;0.70;;;2.60;99.90;;;;;;5084949;28;20632;-59
2021/12/25 12:15:15;;;;;;;2.05;1.85;;;2.50;99.90;;;;;;5103399;27;20553;-58
2021/12/25 12:17:56;;;;;;;2.13;1.95;;;2.40;99.90;;;;;;5125616;27;21041;-58
2021/12/25 12:20:41;;;;;;;0.60;0.60;;;2.40;99.90;;;;;;5084684;27;20539;-58
2021/12/25 12:23:40;;;;;;;0.50;0.50;;;2.20;99.90;;;;;;5154485;27;20992;-58
2021/12/25 12:26:53;;;;;;;0.73;0.68;;;2.00;99.90;;;;;;5124790;27;20557;-59
2021/12/25 12:29:45;;;;;;;0.50;0.50;;;2.00;99.90;;;;;;5080253;28;20633;-58
2021/12/25 12:32:43;;;;;;;0.70;0.70;;;1.80;99.90;;;;;;5135892;27;20687;-59
2021/12/25 12:35:31;;;;;;;0.95;0.80;;;1.60;99.90;;;;;;5122866;27;20557;-58
2021/12/25 12:38:38;;;;;;;0.40;0.40;;;1.50;99.90;;;;;;5076313;27;20620;-58
2021/12/25 12:41:32;;;;;;;0.55;0.55;;;1.30;99.90;;;;;;5138815;27;20870;-58
2021/12/25 12:44:14;;;;;;;0.73;0.65;;;1.30;99.90;;;;;;5086052;27;20593;-59
2021/12/25 12:47:06;;;;;;;0.65;0.60;;;1.30;99.90;;;;;;5083032;28;21011;-58
2021/12/25 12:49:59;;;;;;;0.95;0.90;;;1.30;99.90;;;;;;5116953;27;20961;-58
2021/12/25 12:52:41;;;;;;;0.80;0.80;;;1.20;99.90;;;;;;5117558;27;20547;-58
2021/12/25 12:55:29;;;;;;;0.50;0.50;;;1.10;99.90;;;;;;5075056;27;20616;-58
2021/12/25 12:58:12;;;;;;;0.68;0.60;;;0.90;99.90;;;;;;5070967;28;20615;-58
2021/12/25 13:00:55;;;;;;;0.60;0.50;;;0.90;99.90;;;;;;5138648;27;21085;-58
2021/12/25 13:03:35;;;;;;;1.45;1.35;;;0.80;99.90;;;;;;5131061;27;21042;-59
2021/12/25 13:06:15;;;;;;;0.57;0.57;;;0.80;99.90;;;;;;5102364;27;20658;-58
2021/12/25 13:08:59;;;;;;;0.85;0.85;;;0.80;99.90;;;;;;5078167;28;20691;-58
2021/12/25 13:11:53;;;;;;;0.60;0.60;;;0.90;99.90;;;;;;5102073;27;20665;-58
2021/12/25 13:14:34;;;;;;;0.50;0.50;;;0.90;99.90;;;;;;5083263;27;21524;-59
2021/12/25 13:17:14;;;;;;;0.70;0.70;;;0.90;99.90;;;;;;5146603;27;21214;-58
2021/12/25 13:19:54;;;;;;;0.40;0.40;;;1.00;99.90;;;;;;5086683;22;20733;-58
2021/12/25 13:22:34;;;;;;;0.57;0.57;;;0.90;99.90;;;;;;5147533;27;20543;-58
2021/12/25 13:25:19;;;;;;;0.50;0.50;;;1.00;99.90;;;;;;5084201;27;20583;-58
2021/12/25 13:28:03;;;;;;;0.65;0.65;;;1.00;99.90;;;;;;5084971;28;20672;-58
2021/12/25 13:30:49;;;;;;;0.65;0.65;;;1.00;99.90;;;;;;5105351;27;20673;-58
2021/12/25 13:33:30;;;;;;;0.70;0.70;;;0.90;99.90;;;;;;5084524;27;20676;-58
2021/12/25 13:36:11;;;;;;;0.57;0.45;;;0.80;99.90;;;;;;5104559;27;20984;-59
2021/12/25 13:38:54;;;;;;;1.00;0.80;;;0.70;99.90;;;;;;5105369;27;21210;-58
2021/12/25 13:41:36;;;;;;;0.43;0.43;;;0.70;99.90;;;;;;5105374;27;21205;-58
2021/12/25 13:44:19;;;;;;;0.55;0.55;;;0.60;99.90;;;;;;5080908;27;20587;-58
2021/12/25 13:47:03;;;;;;;0.57;0.57;;;0.50;99.90;;;;;;5128000;27;21039;-58
2021/12/25 13:49:46;;;;;;;3.22;3.03;;;0.50;99.90;;;;;;5102640;27;21741;-58
2021/12/25 13:52:34;;;;;;;1.42;1.30;;;0.50;99.90;;;;;;5083264;28;20696;-58
2021/12/25 13:55:16;;;;;;;0.90;0.80;;;0.50;99.90;;;;;;5077743;28;20690;-58
2021/12/25 13:57:57;;;;;;;0.98;0.80;;;0.40;99.90;;;;;;5082854;28;20680;-58
2021/12/25 14:00:39;;;;;;;0.70;0.70;;;0.40;99.90;;;;;;5115617;27;20580;-58
2021/12/25 14:03:21;;;;;;;0.88;0.88;;;0.40;99.90;;;;;;5103945;27;20546;-58
2021/12/25 14:06:01;;;;;;;0.77;0.63;;;0.30;99.90;;;;;;5082785;27;20539;-59
2021/12/25 14:08:41;;;;;;;0.50;0.50;;;0.20;99.90;;;;;;5080106;28;20683;-58
2021/12/25 14:11:20;;;;;;;0.60;0.60;;;0.20;99.90;;;;;;5064153;28;21051;-58
2021/12/25 14:14:05;;;;;;;0.75;0.75;;;0.10;99.90;;;;;;5083358;28;20668;-58
2021/12/25 14:16:45;;;;;;;0.50;0.50;;;0.10;99.90;;;;;;5104425;27;20537;-58
2021/12/25 14:19:28;;;;;;;0.40;0.40;;;0.10;99.90;;;;;;5104239;27;20673;-58
2021/12/25 14:22:08;;;;;;;0.65;0.45;;;0.00;99.90;;;;;;5145702;27;20546;-58
2021/12/25 14:24:50;;;;;;;0.40;0.40;;;-0.10;99.90;;;;;;5082794;28;20577;-58
2021/12/25 14:27:29;;;;;;;1.20;0.60;;;-0.10;99.90;;;;;;5105116;27;20550;-58
2021/12/25 14:30:13;;;;;;;0.40;0.40;;;-0.20;99.90;;;;;;5105567;27;20673;-58
2021/12/25 14:32:52;;;;;;;0.60;0.60;;;-0.30;99.90;;;;;;5084907;28;20660;-58
2021/12/25 14:35:32;;;;;;;0.45;0.45;;;-0.30;99.90;;;;;;5104136;27;20564;-59
2021/12/25 14:38:12;;;;;;;0.82;0.60;;;-0.40;99.90;;;;;;5085115;28;21041;-59
2021/12/25 14:40:53;;;;;;;0.68;0.68;;;-0.40;99.90;;;;;;5105200;27;20557;-58
2021/12/25 14:43:34;;;;;;;0.95;0.60;;;-0.50;99.90;;;;;;5084989;28;20667;-58
2021/12/25 14:46:20;;;;;;;0.80;0.80;;;-0.60;99.90;;;;;;5145843;27;20535;-58
2021/12/25 14:49:05;;;;;;;0.52;0.52;;;-0.60;99.90;;;;;;5085327;27;20679;-58
2021/12/25 14:51:46;;;;;;;0.80;0.80;;;-0.60;99.90;;;;;;5105865;27;20530;-59
2021/12/25 14:54:31;;;;;;;1.35;1.25;;;-0.70;99.90;;;;;;5084487;28;20667;-59
2021/12/25 14:57:10;;;;;;;1.20;0.90;;;-0.70;99.90;;;;;;5147119;27;20952;-58
2021/12/25 14:59:49;;;;;;;0.90;0.90;;;-0.80;99.90;;;;;;5084882;28;20551;-58
2021/12/25 15:02:31;;;;;;;1.00;0.75;;;-0.80;99.90;;;;;;5084677;27;20543;-58